Time;durP1;ratioP1;P1;durP2;ratioP2;P2;SDS_P1;SDS_P2;PMS_P1;PMS_P2;Temp;Humidity;BMP_temperature;BMP_pressure;BME280_temperature;BME280_humidity;BME280_pressure;Samples;Min_cycle;Max_cycle;Signal;HPM_P1;HPM_P2
2023/09/06 08:31:30;;;;;;;7.03;4.80;;;19.70;70.80;;;19.60;54.94;98496.59;5023587;28;20508;-75
2023/09/06 08:34:17;;;;;;;5.07;4.60;;;19.80;71.00;;;19.78;54.26;98498.91;5020488;28;20840;-75
2023/09/06 08:37:04;;;;;;;5.30;4.90;;;19.90;70.90;;;19.94;54.14;98501.78;5018497;28;20562;-75
2023/09/06 08:39:52;;;;;;;8.03;5.00;;;20.00;70.70;;;19.91;53.89;98502.28;5023007;28;20882;-75
2023/09/06 08:42:40;;;;;;;5.20;4.70;;;20.20;70.00;;;20.14;53.19;98497.50;5023916;28;20972;-75
2023/09/06 08:45:29;;;;;;;7.83;4.53;;;20.20;69.90;;;20.20;53.60;98493.69;5008361;28;20500;-75
2023/09/06 08:48:18;;;;;;;6.30;4.70;;;20.30;69.90;;;20.42;53.21;98492.69;5017783;28;20465;-75
2023/09/06 08:51:07;;;;;;;4.97;4.50;;;20.50;70.10;;;20.63;52.55;98494.41;5014765;28;20476;-75
2023/09/06 08:53:56;;;;;;;5.03;4.63;;;20.70;69.70;;;20.79;52.57;98484.28;5020628;28;20570;-75
2023/09/06 08:56:44;;;;;;;5.30;4.80;;;20.80;69.60;;;21.03;53.45;98494.78;5018627;28;20434;-75
2023/09/06 09:07:36;;;;;;;7.83;5.20;;;21.30;69.10;;;21.40;51.94;98497.56;5020293;28;20438;-75
2023/09/06 09:10:26;;;;;;;4.67;4.27;;;21.40;69.10;;;21.47;51.21;98498.09;5020873;28;20481;-76
2023/09/06 09:13:13;;;;;;;5.07;4.57;;;21.60;68.50;;;21.50;51.04;98498.38;5019327;28;20785;-76
2023/09/06 09:16:00;;;;;;;5.30;4.73;;;21.60;68.20;;;21.42;51.26;98498.13;5020437;28;20447;-75
2023/09/06 09:18:49;;;;;;;5.63;5.10;;;21.60;67.90;;;21.60;51.51;98496.69;5024565;28;20466;-76
2023/09/06 09:21:41;;;;;;;5.10;4.60;;;21.70;68.30;;;21.70;50.64;98491.22;5019571;28;20475;-76
2023/09/06 09:24:31;;;;;;;4.73;4.43;;;21.90;67.70;;;21.85;49.76;98497.81;5025009;28;20531;-76
2023/09/06 09:27:19;;;;;;;5.63;4.20;;;22.00;67.10;;;22.10;50.29;98491.41;5018881;28;20664;-76
2023/09/06 09:30:09;;;;;;;4.87;4.47;;;22.10;67.50;;;22.20;49.75;98487.78;5025300;28;20443;-76
2023/09/06 09:33:03;;;;;;;5.57;5.03;;;22.20;67.10;;;22.32;49.44;98490.25;5024142;28;21112;-76
2023/09/06 09:35:52;;;;;;;4.63;4.23;;;22.30;66.80;;;22.31;48.53;98483.91;5024497;28;20429;-76
2023/09/06 09:38:42;;;;;;;4.33;3.93;;;22.40;65.70;;;22.37;49.16;98487.47;5024803;28;20843;-77
2023/09/06 09:41:32;;;;;;;5.60;4.57;;;22.50;66.30;;;22.64;49.25;98489.84;5025301;28;20780;-76
2023/09/06 09:44:20;;;;;;;6.60;4.53;;;22.70;66.80;;;22.76;48.90;98488.66;5019454;28;20454;-77
2023/09/06 09:47:13;;;;;;;5.55;5.10;;;22.80;66.40;;;22.81;48.71;98490.56;5020866;28;20524;-76
2023/09/06 09:50:02;;;;;;;4.63;4.23;;;22.90;66.00;;;22.93;47.40;98489.09;5024955;28;20251;-74
2023/09/06 09:52:50;;;;;;;4.10;3.80;;;23.00;65.10;;;23.06;46.77;98482.16;5022570;28;20948;-77
2023/09/06 09:55:47;;;;;;;4.80;4.40;;;23.10;64.50;;;23.21;47.31;98481.19;5017324;28;20540;-76
2023/09/06 09:58:36;;;;;;;6.03;5.03;;;23.20;64.70;;;23.20;48.66;98479.56;5030565;28;20499;-76
2023/09/06 10:01:23;;;;;;;6.13;4.87;;;23.30;66.10;;;23.27;47.44;98475.66;5019880;28;20544;-74
2023/09/06 10:04:12;;;;;;;4.70;4.30;;;23.30;65.10;;;23.45;47.72;98471.38;5027359;28;20504;-75
2023/09/06 10:07:01;;;;;;;5.30;4.90;;;23.40;65.20;;;23.53;47.09;98473.53;5026349;28;20886;-75
2023/09/06 10:09:50;;;;;;;5.63;5.07;;;23.50;64.90;;;23.56;47.18;98477.63;5022612;28;20659;-76
2023/09/06 10:12:41;;;;;;;4.43;4.13;;;23.60;64.70;;;23.54;46.80;98463.31;5020262;28;20907;-77
2023/09/06 10:15:32;;;;;;;4.83;4.43;;;23.60;64.00;;;23.62;46.13;98470.97;5017633;28;20482;-76
2023/09/06 10:18:20;;;;;;;5.00;4.50;;;23.70;63.60;;;23.76;46.43;98477.44;5017878;28;20563;-77
2023/09/06 10:21:07;;;;;;;4.87;4.47;;;23.70;64.00;;;23.66;47.54;98465.66;5023591;28;21002;-76
2023/09/06 10:23:55;;;;;;;4.73;4.20;;;23.80;64.40;;;23.83;46.58;98470.75;5016045;28;20849;-78
2023/09/06 10:26:43;;;;;;;4.40;4.10;;;23.90;63.90;;;23.96;46.46;98464.53;5014948;28;20481;-76
2023/09/06 10:29:32;;;;;;;4.03;3.63;;;24.00;63.80;;;23.91;46.74;98461.84;5008116;28;20452;-78
2023/09/06 10:32:22;;;;;;;5.43;4.97;;;24.00;63.60;;;23.68;47.29;98464.25;5007986;28;20450;-79
2023/09/06 10:35:21;;;;;;;4.10;3.80;;;24.00;64.10;;;23.75;46.44;98445.47;5017302;28;20927;-77
2023/09/06 10:38:14;;;;;;;5.30;4.80;;;24.10;63.30;;;23.80;46.13;98460.28;5017481;28;20455;-75
2023/09/06 10:41:09;;;;;;;6.87;4.77;;;24.10;63.10;;;23.72;47.31;98454.28;5017546;28;20494;-76
2023/09/06 10:44:06;;;;;;;5.20;4.70;;;24.10;63.50;;;23.76;47.82;98452.63;5017001;28;20469;-75
2023/09/06 10:46:53;;;;;;;4.93;4.53;;;24.10;63.90;;;23.92;47.43;98441.41;5014929;28;20448;-75
2023/09/06 10:50:09;;;;;;;5.63;5.03;;;24.20;64.00;;;24.10;46.86;98445.34;5014612;28;20918;-77
2023/09/06 10:53:00;;;;;;;4.63;4.23;;;24.40;63.70;;;24.19;46.67;98445.53;5014796;28;20632;-76
2023/09/06 10:55:49;;;;;;;4.77;4.37;;;24.50;63.30;;;24.01;46.58;98452.63;5009388;28;20815;-76
2023/09/06 10:58:38;;;;;;;4.43;4.13;;;24.40;63.10;;;24.32;46.08;98447.56;5009653;28;20456;-78
2023/09/06 11:01:25;;;;;;;4.23;3.93;;;24.50;62.70;;;24.28;45.53;98443.75;5014468;28;20485;-75
2023/09/06 11:04:14;;;;;;;3.73;3.43;;;24.50;62.60;;;24.57;45.68;98447.53;5016579;28;20874;-76
2023/09/06 11:07:09;;;;;;;5.10;4.17;;;24.60;62.50;;;24.58;44.01;98441.69;5019113;28;20802;-76
2023/09/06 11:09:57;;;;;;;3.77;3.10;;;24.70;61.30;;;24.46;41.29;98442.13;5020581;28;20442;-76
2023/09/06 11:12:44;;;;;;;4.10;3.40;;;24.70;58.70;;;24.53;41.61;98444.53;5017768;28;20471;-77
2023/09/06 11:15:36;;;;;;;3.23;3.00;;;24.70;58.80;;;24.47;39.18;98441.03;5019597;28;20458;-77
2023/09/06 11:18:23;;;;;;;4.03;3.73;;;24.70;56.10;;;24.59;41.05;98437.00;5017126;28;20446;-76
2023/09/06 11:21:11;;;;;;;4.57;3.70;;;24.80;58.10;;;24.74;41.57;98442.31;5020559;28;20512;-77
2023/09/06 11:23:59;;;;;;;4.10;3.80;;;24.90;58.70;;;24.68;42.68;98435.19;5023809;28;20483;-76
2023/09/06 11:26:47;;;;;;;4.30;4.00;;;24.80;59.10;;;24.90;43.74;98440.13;5012399;28;20924;-76
2023/09/06 11:29:34;;;;;;;4.43;4.13;;;24.90;60.50;;;25.04;43.47;98431.09;5013799;28;20479;-77
2023/09/06 11:32:21;;;;;;;4.10;3.80;;;25.10;60.30;;;25.04;44.55;98433.84;5018402;28;20845;-78
2023/09/06 11:35:10;;;;;;;4.87;4.47;;;25.20;60.90;;;24.88;44.78;98439.63;5015462;28;20795;-78
2023/09/06 11:37:41;;;;;;;5.73;5.23;;;25.10;60.90;;;24.90;44.92;98442.91;5018471;28;20470;-76
2023/09/06 11:40:14;;;;;;;4.70;4.20;;;25.10;61.10;;;25.05;44.86;98432.72;5014622;28;20451;-77
2023/09/06 11:42:43;;;;;;;4.23;3.80;;;25.20;61.10;;;24.78;45.05;98431.47;5031489;28;20458;-77
2023/09/06 11:45:16;;;;;;;5.73;4.80;;;25.10;61.20;;;25.03;44.97;98430.28;5009862;28;20978;-76
2023/09/06 11:47:45;;;;;;;4.93;4.50;;;25.20;61.60;;;25.23;44.25;98433.00;5016638;28;21024;-75
2023/09/06 11:50:19;;;;;;;4.90;4.40;;;25.30;61.00;;;25.27;44.39;98434.03;5014679;28;20468;-75
2023/09/06 11:52:48;;;;;;;5.30;4.57;;;25.40;61.00;;;25.17;45.10;98424.78;5028385;28;20534;-76
2023/09/06 11:55:18;;;;;;;4.67;4.37;;;25.40;61.10;;;25.32;44.19;98422.88;5014919;28;20861;-75
2023/09/06 11:57:51;;;;;;;6.67;4.30;;;25.40;60.80;;;25.39;44.30;98420.53;5014939;28;20451;-80
2023/09/06 12:00:27;;;;;;;4.20;3.80;;;25.50;60.90;;;25.55;43.88;98417.53;5018058;28;20465;-75
2023/09/06 12:02:57;;;;;;;5.10;4.60;;;25.70;60.50;;;25.54;43.54;98410.34;5020345;28;20477;-75
2023/09/06 12:05:26;;;;;;;4.30;3.90;;;25.70;60.40;;;25.58;43.47;98381.78;5025125;28;20478;-76
2023/09/06 12:07:55;;;;;;;4.00;3.70;;;25.70;60.50;;;25.67;43.06;98404.00;5020800;28;20466;-76
2023/09/06 12:10:26;;;;;;;4.13;3.77;;;25.80;59.80;;;25.74;42.82;98401.69;5020478;28;20458;-76
2023/09/06 12:12:56;;;;;;;5.10;4.60;;;25.80;59.90;;;25.82;42.86;98400.16;5032150;28;20460;-77
2023/09/06 12:15:25;;;;;;;4.90;4.50;;;25.90;60.10;;;25.97;42.51;98393.47;5009963;28;20452;-75
2023/09/06 12:17:54;;;;;;;4.77;4.37;;;26.00;59.90;;;26.02;42.44;98387.00;5014448;28;20488;-76
2023/09/06 12:20:23;;;;;;;4.47;4.17;;;26.00;59.70;;;26.04;42.63;98390.28;5018930;28;20474;-76
2023/09/06 12:22:53;;;;;;;5.07;4.40;;;26.10;59.80;;;26.24;42.64;98391.81;5021209;28;20454;-76
2023/09/06 12:25:23;;;;;;;4.70;4.20;;;26.20;59.90;;;26.26;41.91;98386.78;5011777;28;20600;-77
2023/09/06 12:27:50;;;;;;;4.13;3.83;;;26.30;59.40;;;26.34;42.35;98388.00;5024558;28;20482;-77
2023/09/06 12:30:19;;;;;;;4.63;4.23;;;26.40;59.50;;;26.13;41.74;98359.91;5019999;28;21010;-77
2023/09/06 12:32:47;;;;;;;4.60;4.20;;;26.30;59.10;;;26.38;41.39;98382.66;5033358;28;20519;-76
2023/09/06 12:35:14;;;;;;;4.33;4.00;;;26.40;58.80;;;26.34;41.90;98381.66;5019583;28;20542;-76
2023/09/06 12:37:42;;;;;;;4.73;4.33;;;26.40;59.30;;;26.53;41.91;98382.31;5013365;28;20466;-77
2023/09/06 12:40:13;;;;;;;4.03;3.73;;;26.50;59.10;;;26.66;41.14;98379.81;5021617;28;20452;-76
2023/09/06 12:42:43;;;;;;;4.43;4.03;;;26.60;58.70;;;26.71;41.41;98379.69;5011840;28;20534;-77
2023/09/06 12:45:25;;;;;;;5.17;3.50;;;26.70;58.80;;;26.62;41.06;98378.81;5015390;28;20480;-76
2023/09/06 12:47:52;;;;;;;4.47;4.13;;;26.60;58.50;;;26.67;40.91;98373.16;5012047;28;21012;-77
2023/09/06 12:50:22;;;;;;;4.30;3.90;;;26.60;58.30;;;26.61;41.58;98374.38;5036773;28;20547;-77
2023/09/06 12:52:49;;;;;;;4.00;3.67;;;26.60;58.70;;;26.76;40.48;98368.47;5017754;28;20537;-77
2023/09/06 12:55:18;;;;;;;3.70;3.40;;;26.70;58.00;;;26.68;40.66;98370.03;5012438;28;20462;-75
2023/09/06 12:57:47;;;;;;;4.27;3.87;;;26.70;57.70;;;26.68;41.11;98363.69;5018125;28;20442;-75
2023/09/06 13:00:16;;;;;;;4.33;3.93;;;26.70;58.10;;;26.55;40.46;98365.41;5017616;28;20461;-74
2023/09/06 13:02:43;;;;;;;3.90;3.50;;;26.60;57.50;;;26.76;40.11;98354.63;5019577;28;20453;-77
2023/09/06 13:05:11;;;;;;;3.80;3.50;;;26.70;57.40;;;26.96;39.78;98352.53;5019236;28;20481;-75
2023/09/06 13:07:39;;;;;;;4.63;3.40;;;26.80;57.50;;;27.03;39.45;98357.63;5022700;28;20520;-74
2023/09/06 13:10:07;;;;;;;4.00;3.70;;;26.90;57.00;;;26.94;39.67;98354.78;5018684;28;20484;-75
2023/09/06 13:12:34;;;;;;;4.17;3.80;;;27.00;57.00;;;26.90;38.90;98353.75;5019945;28;20498;-76
2023/09/06 13:15:05;;;;;;;3.70;3.40;;;27.00;56.40;;;26.68;40.01;98352.63;5021443;28;20554;-81
2023/09/06 13:17:32;;;;;;;4.13;3.67;;;26.80;56.60;;;26.77;39.26;98350.75;5032941;28;20640;-78
2023/09/06 13:19:59;;;;;;;4.00;3.70;;;26.90;56.30;;;26.80;39.77;98350.09;5024417;28;20535;-76
2023/09/06 13:22:27;;;;;;;4.37;3.20;;;26.90;56.60;;;26.80;39.21;98352.03;5037171;28;20453;-75
2023/09/06 13:24:54;;;;;;;3.10;2.90;;;26.90;56.10;;;26.82;39.24;98347.81;5026765;28;20847;-76
2023/09/06 13:27:22;;;;;;;3.20;2.90;;;26.90;56.00;;;26.87;38.36;98347.72;5014623;28;20465;-79
2023/09/06 13:29:54;;;;;;;4.87;3.90;;;27.00;55.60;;;26.93;38.74;98348.41;5038751;28;20488;-76
2023/09/06 13:32:25;;;;;;;3.63;3.33;;;27.00;55.90;;;26.98;38.20;98344.69;5036853;28;20513;-79
2023/09/06 13:34:54;;;;;;;3.23;2.93;;;27.10;55.20;;;27.13;38.22;98347.06;5019289;28;20464;-75
2023/09/06 13:37:21;;;;;;;3.77;3.47;;;27.10;55.40;;;27.08;38.79;98338.91;5019410;28;20587;-78
2023/09/06 13:39:48;;;;;;;3.23;3.03;;;27.20;55.80;;;27.15;38.64;98342.03;5023772;28;20874;-76
2023/09/06 13:42:17;;;;;;;3.03;2.80;;;27.20;55.30;;;27.01;37.48;98335.75;5041264;28;20446;-75
2023/09/06 13:44:44;;;;;;;3.03;2.83;;;27.20;54.40;;;26.96;37.67;98325.59;5041484;28;20474;-75
2023/09/06 13:47:15;;;;;;;2.97;2.77;;;27.10;54.40;;;27.15;37.78;98333.72;5018995;28;20456;-76
2023/09/06 13:49:44;;;;;;;3.50;3.20;;;27.20;54.60;;;27.18;37.77;98326.72;5022247;28;20449;-77
2023/09/06 13:52:11;;;;;;;3.67;3.37;;;27.20;54.70;;;27.25;37.27;98327.06;5027805;28;20519;-75
2023/09/06 13:54:43;;;;;;;3.30;3.10;;;27.30;54.20;;;27.20;36.98;98331.94;5028093;28;20447;-75
2023/09/06 13:57:10;;;;;;;3.87;3.20;;;27.30;54.10;;;27.30;36.80;98326.13;5026389;28;20441;-76
2023/09/06 13:59:37;;;;;;;3.83;3.07;;;27.30;53.90;;;27.22;36.73;98322.16;5019572;28;20551;-75
2023/09/06 14:02:05;;;;;;;2.93;2.70;;;27.40;53.80;;;27.37;37.35;98322.88;5027725;28;20465;-73
2023/09/06 14:04:33;;;;;;;3.13;2.90;;;27.40;54.20;;;27.40;36.74;98316.69;5037182;28;20564;-75
2023/09/06 14:07:03;;;;;;;3.13;2.63;;;27.40;53.70;;;27.23;36.38;98321.03;5021242;28;20925;-75
2023/09/06 14:09:30;;;;;;;3.60;3.30;;;27.40;53.40;;;27.41;35.78;98321.94;5013998;28;20549;-76
2023/09/06 14:11:58;;;;;;;3.23;2.97;;;27.40;53.20;;;27.35;35.50;98312.09;5020621;28;21051;-77
2023/09/06 14:14:25;;;;;;;4.77;3.40;;;27.40;52.80;;;27.32;36.16;98309.97;5023062;28;20969;-77
2023/09/06 14:16:54;;;;;;;4.00;3.70;;;27.40;53.10;;;27.25;36.11;98318.75;5024318;28;20457;-74
2023/09/06 14:19:21;;;;;;;3.00;2.77;;;27.40;52.80;;;27.25;36.22;98315.16;5023136;28;20450;-78
2023/09/06 14:21:48;;;;;;;3.57;3.27;;;27.30;52.80;;;27.28;36.09;98306.19;5023065;28;20469;-80
2023/09/06 14:24:17;;;;;;;3.90;2.90;;;27.40;52.60;;;27.36;36.66;98305.41;5018722;28;20477;-76
2023/09/06 14:26:44;;;;;;;2.60;2.40;;;27.40;53.10;;;27.32;36.53;98309.16;5019747;28;20470;-77
2023/09/06 14:29:12;;;;;;;3.13;2.93;;;27.40;52.90;;;27.38;35.20;98303.16;5019058;28;20789;-77
2023/09/06 14:31:40;;;;;;;2.70;2.50;;;27.40;52.30;;;27.34;34.78;98306.88;5016066;28;20930;-80
2023/09/06 14:34:07;;;;;;;2.73;2.53;;;27.40;51.80;;;27.42;35.28;98298.59;5014946;28;20830;-77
2023/09/06 14:36:35;;;;;;;3.20;2.97;;;27.40;52.00;;;27.40;35.34;98298.09;5015975;28;20546;-76
2023/09/06 14:39:03;;;;;;;3.10;2.90;;;27.50;52.00;;;27.46;35.99;98296.00;5018541;28;20462;-74
2023/09/06 14:41:32;;;;;;;3.27;2.97;;;27.50;52.70;;;27.43;35.28;98294.69;5023887;28;20848;-79
2023/09/06 14:43:59;;;;;;;3.50;3.30;;;27.50;51.90;;;27.31;35.21;98296.44;5023172;28;20466;-76
2023/09/06 14:46:27;;;;;;;3.40;3.10;;;27.50;51.80;;;27.18;35.17;98273.19;5045210;28;20654;-74
2023/09/06 14:48:54;;;;;;;4.33;3.43;;;27.40;51.70;;;27.22;35.15;98293.59;5024403;28;20953;-74
2023/09/06 14:51:21;;;;;;;3.13;2.93;;;27.30;51.50;;;27.32;35.32;98293.31;5042539;28;20461;-74
2023/09/06 14:53:50;;;;;;;2.93;2.73;;;27.40;51.80;;;27.22;35.05;98274.19;5026381;28;20930;-74
2023/09/06 14:56:18;;;;;;;2.90;2.70;;;27.40;51.70;;;27.26;34.38;98297.38;5026345;28;20464;-79
2023/09/06 14:58:46;;;;;;;4.30;2.73;;;27.40;50.80;;;27.25;34.56;98292.97;5021478;28;20867;-75
2023/09/06 15:01:14;;;;;;;3.67;3.37;;;27.30;50.60;;;27.32;34.72;98289.75;5025477;28;20524;-75
2023/09/06 15:03:41;;;;;;;2.90;2.70;;;27.40;51.10;;;27.37;34.21;98284.88;5023316;28;20457;-75
2023/09/06 15:06:12;;;;;;;3.13;2.80;;;27.40;51.10;;;27.44;34.26;98285.22;5022898;28;20951;-77
2023/09/06 15:08:40;;;;;;;2.90;2.70;;;27.40;50.80;;;27.38;34.06;98280.97;5014558;28;20541;-75
2023/09/06 15:11:07;;;;;;;3.40;3.00;;;27.50;50.60;;;27.57;34.53;98279.91;5022790;28;20959;-71
2023/09/06 15:13:35;;;;;;;2.83;2.50;;;27.50;51.30;;;27.41;34.85;98285.03;5019882;28;20533;-71
2023/09/06 15:16:04;;;;;;;6.03;3.07;;;27.50;51.00;;;27.44;35.48;98279.66;5036198;28;20864;-77
2023/09/06 15:18:31;;;;;;;2.60;2.40;;;27.50;51.60;;;27.43;34.74;98283.59;5023045;28;20527;-73
2023/09/06 15:20:59;;;;;;;3.07;2.80;;;27.50;50.90;;;27.38;35.11;98291.22;5029580;28;20457;-75
2023/09/06 15:23:27;;;;;;;4.23;2.53;;;27.50;51.20;;;27.25;35.37;98292.97;5018561;28;20496;-76
2023/09/06 15:25:55;;;;;;;5.10;3.03;;;27.40;51.30;;;27.34;35.59;98285.50;5018264;28;20473;-75
2023/09/06 15:28:22;;;;;;;3.23;2.57;;;27.40;51.50;;;27.33;36.01;98286.63;5034622;28;20455;-75
2023/09/06 15:30:49;;;;;;;3.03;2.70;;;27.40;51.80;;;27.47;36.09;98294.03;5017471;28;20468;-76
2023/09/06 15:33:19;;;;;;;3.27;2.90;;;27.40;52.00;;;27.40;36.46;98289.78;5016953;28;20500;-75
2023/09/06 15:35:46;;;;;;;4.23;2.97;;;27.40;52.10;;;27.46;36.50;98295.16;5022498;28;20476;-73
2023/09/06 15:38:14;;;;;;;2.93;2.73;;;27.40;52.50;;;27.46;36.83;98286.84;5025951;28;20453;-70
2023/09/06 15:40:41;;;;;;;3.10;2.67;;;27.40;52.70;;;27.41;36.65;98285.88;5029038;28;20454;-73
2023/09/06 15:43:08;;;;;;;3.13;2.93;;;27.50;52.70;;;27.28;36.85;98293.13;5037632;28;20457;-73
2023/09/06 15:45:36;;;;;;;4.20;3.13;;;27.40;52.50;;;27.32;37.15;98281.44;5030442;28;20473;-75
2023/09/06 15:48:04;;;;;;;2.63;2.43;;;27.40;52.70;;;27.32;37.31;98292.53;5027371;28;20466;-74
2023/09/06 15:50:33;;;;;;;2.90;2.70;;;27.30;52.80;;;27.29;37.16;98285.66;5023437;28;20457;-74
2023/09/06 15:53:01;;;;;;;3.10;2.90;;;27.40;53.00;;;27.27;38.03;98283.19;5023594;28;20467;-75
2023/09/06 15:55:28;;;;;;;3.27;2.90;;;27.30;53.20;;;27.33;38.08;98285.84;5028951;28;20450;-74
2023/09/06 15:57:56;;;;;;;3.33;2.90;;;27.30;53.40;;;27.27;38.18;98282.38;5029912;28;20461;-73
2023/09/06 16:00:24;;;;;;;3.30;3.10;;;27.30;53.40;;;27.21;38.39;98278.09;5045157;28;20465;-73
2023/09/06 16:02:51;;;;;;;2.80;2.60;;;27.30;53.60;;;27.22;38.51;98279.72;5042974;28;20456;-75
2023/09/06 16:05:18;;;;;;;2.93;2.73;;;27.30;53.70;;;27.24;38.72;98278.28;5030635;28;20473;-76
2023/09/06 16:07:48;;;;;;;3.23;3.00;;;27.30;54.00;;;27.21;39.11;98275.31;5029560;28;20450;-75
2023/09/06 16:10:15;;;;;;;2.80;2.60;;;27.30;54.30;;;27.10;39.38;98272.03;5041168;28;20495;-75
2023/09/06 16:12:43;;;;;;;3.00;2.80;;;27.20;54.40;;;27.05;39.30;98267.44;5022839;28;20458;-76
2023/09/06 16:15:11;;;;;;;4.07;2.97;;;27.10;54.20;;;27.06;38.74;98277.38;5045403;28;20528;-75
2023/09/06 16:17:38;;;;;;;3.33;2.97;;;27.10;53.70;;;27.04;39.11;98276.88;5027333;28;20459;-76
2023/09/06 16:20:07;;;;;;;4.53;2.93;;;27.10;54.10;;;26.97;38.64;98276.53;5021365;28;21020;-76
2023/09/06 16:22:34;;;;;;;2.83;2.63;;;27.10;53.70;;;26.90;39.02;98277.00;5021915;28;20465;-77
2023/09/06 16:25:07;;;;;;;3.23;2.93;;;27.00;53.80;;;26.93;39.31;98275.56;5023706;28;21101;-81
2023/09/06 16:27:34;;;;;;;3.20;2.80;;;27.00;54.20;;;26.90;39.82;98276.16;5024801;28;20464;-75
2023/09/06 16:30:05;;;;;;;3.23;2.93;;;27.00;54.50;;;26.85;39.38;98286.22;5042210;28;20453;-76
2023/09/06 16:32:32;;;;;;;3.10;2.60;;;26.90;54.30;;;26.76;39.42;98277.03;5022724;28;20463;-75
2023/09/06 16:34:59;;;;;;;5.07;2.97;;;26.80;54.00;;;26.76;39.75;98282.56;5022097;28;20486;-76
2023/09/06 16:37:27;;;;;;;3.87;2.80;;;26.80;54.20;;;26.75;40.31;98275.41;5044503;28;20990;-76
2023/09/06 16:39:54;;;;;;;2.93;2.63;;;26.80;54.70;;;26.68;40.05;98275.84;5038587;28;20453;-77
2023/09/06 16:42:24;;;;;;;4.20;3.03;;;26.70;54.80;;;26.50;40.00;98280.47;5027734;28;20575;-76
2023/09/06 16:44:51;;;;;;;3.00;2.77;;;26.60;54.20;;;26.37;40.39;98275.81;5027381;28;20457;-77
2023/09/06 16:47:19;;;;;;;3.00;2.67;;;26.50;54.50;;;26.43;40.84;98280.91;5025179;28;20466;-78
2023/09/06 16:49:47;;;;;;;2.67;2.47;;;26.50;54.80;;;26.27;40.65;98271.34;5024951;28;20468;-78
2023/09/06 16:52:14;;;;;;;4.03;3.10;;;26.40;54.60;;;26.33;40.68;98274.81;5026411;28;20967;-76
2023/09/06 16:54:42;;;;;;;3.00;2.80;;;26.40;54.80;;;26.60;40.86;98273.84;5022562;28;20556;-77
2023/09/06 16:57:09;;;;;;;2.80;2.60;;;26.50;55.50;;;27.26;39.33;98277.97;5026696;28;20452;-78
2023/09/06 16:59:38;;;;;;;2.80;2.60;;;26.80;54.70;;;27.71;38.34;98280.59;5018987;28;20462;-78
2023/09/06 17:02:06;;;;;;;4.20;3.43;;;27.30;54.50;;;27.95;38.67;98284.06;5024224;28;20524;-77
2023/09/06 17:04:33;;;;;;;2.80;2.60;;;27.50;54.60;;;28.27;37.32;98281.97;5028844;28;20464;-77
2023/09/06 17:07:01;;;;;;;4.00;2.60;;;27.70;54.00;;;28.17;37.51;98282.31;5015288;28;20475;-76
2023/09/06 17:09:28;;;;;;;3.10;2.90;;;27.80;54.00;;;28.54;36.50;98280.81;5025387;28;20943;-77
2023/09/06 17:11:55;;;;;;;4.17;3.77;;;28.00;53.80;;;28.36;37.18;98287.53;5025870;28;20464;-75
2023/09/06 17:14:23;;;;;;;3.13;2.90;;;28.00;53.80;;;28.02;36.72;98280.81;5027467;28;20454;-76
2023/09/06 17:16:52;;;;;;;3.00;2.80;;;27.90;53.30;;;27.81;37.74;98286.97;5023966;28;20459;-76
2023/09/06 17:19:20;;;;;;;3.40;2.90;;;27.60;53.40;;;27.55;37.01;98284.97;5026055;28;20446;-76
2023/09/06 17:21:47;;;;;;;3.50;3.20;;;27.50;52.90;;;27.43;38.43;98294.69;5027169;28;20497;-76
2023/09/06 17:24:15;;;;;;;6.20;3.13;;;27.30;53.70;;;27.14;38.02;98282.16;5027063;28;20454;-76
2023/09/06 17:26:45;;;;;;;4.77;3.10;;;27.20;53.30;;;27.18;38.47;98299.00;5024527;28;20489;-76
2023/09/06 17:29:14;;;;;;;4.20;3.07;;;27.00;53.60;;;27.03;38.36;98299.41;5027292;28;20956;-76
2023/09/06 17:31:42;;;;;;;3.07;2.87;;;26.90;53.40;;;26.62;39.13;98298.47;5025183;28;20498;-77
2023/09/06 17:34:11;;;;;;;3.43;3.13;;;26.70;53.60;;;26.64;39.49;98302.53;5037644;28;20555;-77
2023/09/06 17:36:38;;;;;;;4.50;3.70;;;26.60;54.00;;;26.20;40.31;98299.44;5026545;28;20832;-76
2023/09/06 17:39:08;;;;;;;5.17;3.60;;;26.20;54.20;;;25.58;41.14;98270.34;5022375;28;20462;-77
2023/09/06 17:41:37;;;;;;;3.57;3.27;;;25.90;54.50;;;25.28;42.32;98298.25;5024907;28;20468;-77
2023/09/06 17:44:05;;;;;;;3.00;2.80;;;25.50;54.80;;;24.95;43.07;98303.03;5025543;28;20472;-76
2023/09/06 17:46:34;;;;;;;3.97;3.53;;;25.10;55.10;;;24.71;43.99;98306.72;5025720;28;20838;-75
2023/09/06 17:49:05;;;;;;;5.53;3.17;;;24.80;55.50;;;24.36;44.47;98306.19;5039276;28;20510;-76
2023/09/06 17:51:35;;;;;;;5.93;3.70;;;24.60;55.80;;;24.29;44.64;98315.66;5026115;28;21022;-76
2023/09/06 17:54:03;;;;;;;4.80;3.50;;;24.40;56.00;;;24.05;45.29;98308.28;5020750;28;21190;-77
2023/09/06 17:56:31;;;;;;;3.80;3.50;;;24.20;56.30;;;23.92;45.68;98320.03;5029679;28;20458;-77
2023/09/06 17:58:59;;;;;;;3.90;3.60;;;24.00;56.50;;;23.75;46.56;98307.56;5027410;28;20465;-77
2023/09/06 18:01:26;;;;;;;7.13;3.57;;;23.90;56.80;;;23.60;47.18;98313.25;5010820;28;20523;-77
2023/09/06 18:03:56;;;;;;;4.20;3.80;;;23.80;56.90;;;23.48;47.22;98319.16;5025277;28;20825;-77
2023/09/06 18:06:25;;;;;;;4.30;3.70;;;23.60;57.10;;;23.33;47.54;98320.16;5046003;28;20478;-77
2023/09/06 18:08:56;;;;;;;3.73;3.43;;;23.40;57.20;;;23.15;48.23;98321.69;5027468;28;20467;-79
2023/09/06 18:11:24;;;;;;;6.53;4.40;;;23.30;57.60;;;23.04;48.45;98321.00;5043478;28;20736;-77
2023/09/06 18:13:52;;;;;;;4.10;3.50;;;23.10;57.70;;;22.86;49.08;98323.34;5036606;28;20509;-76
2023/09/06 18:16:20;;;;;;;4.40;3.77;;;23.00;58.00;;;22.72;49.49;98325.13;5032171;28;20442;-73
2023/09/06 18:18:48;;;;;;;4.20;3.90;;;22.80;58.20;;;22.54;49.85;98330.22;5042519;28;20970;-77
2023/09/06 18:21:15;;;;;;;4.47;3.70;;;22.60;58.20;;;22.29;50.70;98317.41;5042259;28;20521;-79
2023/09/06 18:23:44;;;;;;;5.03;4.27;;;22.40;58.70;;;22.04;51.47;98331.06;5035319;28;20450;-78
2023/09/06 18:26:13;;;;;;;5.60;4.23;;;22.10;59.00;;;21.87;51.87;98327.84;5027436;28;20490;-78
2023/09/06 18:28:40;;;;;;;4.37;3.97;;;21.90;59.30;;;21.79;52.86;98330.09;5025675;28;20512;-79
2023/09/06 18:31:08;;;;;;;3.80;3.47;;;21.80;60.00;;;21.63;53.04;98331.22;5021599;28;20487;-77
2023/09/06 18:33:37;;;;;;;4.00;3.60;;;21.60;60.30;;;21.52;54.20;98331.25;5022443;28;20813;-76
2023/09/06 18:36:08;;;;;;;4.70;4.30;;;21.50;61.10;;;21.31;54.64;98333.25;5018630;28;20484;-78
2023/09/06 18:38:36;;;;;;;4.57;4.17;;;21.30;61.40;;;21.21;55.15;98336.00;5037120;28;20461;-77
2023/09/06 18:41:08;;;;;;;4.77;4.37;;;21.20;61.90;;;21.20;55.46;98337.94;5019458;28;22574;-78
2023/09/06 18:43:38;;;;;;;5.17;4.67;;;21.10;62.30;;;21.08;55.62;98334.66;5022690;28;20450;-78
2023/09/06 18:46:05;;;;;;;4.40;4.10;;;21.10;62.50;;;20.95;56.21;98344.28;5024333;28;20462;-78
2023/09/06 18:48:35;;;;;;;4.83;4.40;;;20.90;62.90;;;20.87;56.77;98342.09;5020946;28;20458;-78
2023/09/06 18:51:07;;;;;;;5.70;5.00;;;20.80;63.50;;;20.78;57.23;98344.53;5021818;28;20446;-79
2023/09/06 18:53:35;;;;;;;4.40;4.00;;;20.80;64.00;;;20.52;57.71;98341.78;5025227;28;20507;-78
2023/09/06 18:56:04;;;;;;;5.00;4.50;;;20.60;64.30;;;20.43;58.29;98337.94;5023392;28;20795;-79
2023/09/06 18:58:33;;;;;;;5.83;5.23;;;20.50;64.90;;;20.34;59.04;98345.88;5018765;28;20626;-77
2023/09/06 19:01:01;;;;;;;5.30;4.80;;;20.30;65.40;;;20.26;59.53;98338.19;5019675;28;20492;-75
2023/09/06 19:03:29;;;;;;;5.13;4.63;;;20.20;66.10;;;20.15;59.86;98342.81;5021439;28;20918;-76
2023/09/06 19:05:56;;;;;;;5.60;5.00;;;20.10;66.50;;;19.99;60.67;98350.16;5023591;28;21058;-79
2023/09/06 19:08:24;;;;;;;7.50;4.60;;;20.00;67.10;;;19.85;61.19;98344.34;5041579;28;20889;-79
2023/09/06 19:10:51;;;;;;;4.93;4.53;;;19.80;67.50;;;19.74;61.50;98344.28;5020341;28;20499;-79
2023/09/06 19:13:18;;;;;;;5.53;5.03;;;19.80;68.20;;;19.72;61.99;98349.22;5018525;28;20460;-79
2023/09/06 19:15:48;;;;;;;6.53;5.93;;;19.70;68.90;;;19.64;62.30;98355.22;5024166;28;20470;-78
2023/09/06 19:18:16;;;;;;;7.30;5.23;;;19.60;69.00;;;19.52;62.24;98337.09;5023580;28;20446;-79
2023/09/06 19:20:44;;;;;;;5.87;5.37;;;19.60;69.70;;;19.78;61.53;98348.13;5032086;28;20462;-78
2023/09/06 19:23:16;;;;;;;5.47;5.00;;;19.70;69.40;;;19.63;61.83;98342.59;5026904;28;20569;-77
2023/09/06 19:25:51;;;;;;;8.07;6.00;;;19.70;69.50;;;19.58;62.17;98350.81;5023140;28;20548;-79